sensor_id;sensor_type;location;lat;lon;timestamp;pressure;altitude;pressure_sealevel;temperature;humidity
9521;BME280;4798;41.574;23.734;2023-04-23T00:00:45;95345.75;;;9.06;100.00
9521;BME280;4798;41.574;23.734;2023-04-23T00:03:17;95342.28;;;8.95;100.00
9521;BME280;4798;41.574;23.734;2023-04-23T00:05:46;95350.16;;;8.85;100.00
9521;BME280;4798;41.574;23.734;2023-04-23T00:08:17;95340.16;;;8.92;100.00
9521;BME280;4798;41.574;23.734;2023-04-23T00:10:47;95347.97;;;9.39;100.00
9521;BME280;4798;41.574;23.734;2023-04-23T00:13:16;95336.06;;;9.36;100.00
9521;BME280;4798;41.574;23.734;2023-04-23T00:15:45;95350.03;;;9.17;100.00
9521;BME280;4798;41.574;23.734;2023-04-23T00:18:14;95347.88;;;9.09;100.00
9521;BME280;4798;41.574;23.734;2023-04-23T00:20:43;95358.34;;;8.88;100.00
9521;BME280;4798;41.574;23.734;2023-04-23T00:23:11;95349.00;;;9.23;100.00
9521;BME280;4798;41.574;23.734;2023-04-23T00:25:39;95345.91;;;9.46;100.00
9521;BME280;4798;41.574;23.734;2023-04-23T00:28:09;95354.91;;;9.60;100.00
9521;BME280;4798;41.574;23.734;2023-04-23T00:30:38;95345.66;;;9.63;100.00
9521;BME280;4798;41.574;23.734;2023-04-23T00:33:06;95347.69;;;9.30;100.00
9521;BME280;4798;41.574;23.734;2023-04-23T00:35:34;95340.53;;;9.21;100.00
9521;BME280;4798;41.574;23.734;2023-04-23T00:38:02;95335.44;;;9.04;100.00
9521;BME280;4798;41.574;23.734;2023-04-23T00:40:31;95288.56;;;8.84;100.00
9521;BME280;4798;41.574;23.734;2023-04-23T00:43:00;95297.31;;;8.33;100.00
9521;BME280;4798;41.574;23.734;2023-04-23T00:45:30;95337.75;;;8.39;100.00
9521;BME280;4798;41.574;23.734;2023-04-23T00:47:58;95343.66;;;8.19;100.00
9521;BME280;4798;41.574;23.734;2023-04-23T00:50:27;95347.84;;;8.15;100.00
9521;BME280;4798;41.574;23.734;2023-04-23T00:52:55;95341.25;;;8.17;100.00
9521;BME280;4798;41.574;23.734;2023-04-23T00:55:23;95340.09;;;8.35;100.00
9521;BME280;4798;41.574;23.734;2023-04-23T00:57:52;95351.72;;;8.81;100.00
9521;BME280;4798;41.574;23.734;2023-04-23T01:00:20;95346.31;;;9.08;100.00
9521;BME280;4798;41.574;23.734;2023-04-23T01:02:50;95350.06;;;9.32;100.00
9521;BME280;4798;41.574;23.734;2023-04-23T01:05:21;95346.13;;;9.44;100.00
9521;BME280;4798;41.574;23.734;2023-04-23T01:07:50;95351.06;;;9.11;100.00
9521;BME280;4798;41.574;23.734;2023-04-23T01:10:19;95357.66;;;9.03;100.00
9521;BME280;4798;41.574;23.734;2023-04-23T01:12:47;95358.94;;;9.01;100.00
9521;BME280;4798;41.574;23.734;2023-04-23T01:15:16;95366.56;;;8.92;100.00
9521;BME280;4798;41.574;23.734;2023-04-23T01:17:44;95370.19;;;8.76;100.00
9521;BME280;4798;41.574;23.734;2023-04-23T01:20:14;95332.00;;;8.15;100.00
9521;BME280;4798;41.574;23.734;2023-04-23T01:22:44;95384.25;;;8.13;100.00
9521;BME280;4798;41.574;23.734;2023-04-23T01:25:13;95386.84;;;8.76;100.00
9521;BME280;4798;41.574;23.734;2023-04-23T01:27:42;95381.50;;;8.66;100.00
9521;BME280;4798;41.574;23.734;2023-04-23T01:30:11;95353.59;;;8.85;100.00
9521;BME280;4798;41.574;23.734;2023-04-23T01:32:40;95378.31;;;9.21;100.00
9521;BME280;4798;41.574;23.734;2023-04-23T01:35:09;95358.38;;;8.93;100.00
9521;BME280;4798;41.574;23.734;2023-04-23T01:37:39;95372.97;;;9.06;100.00
9521;BME280;4798;41.574;23.734;2023-04-23T01:40:10;95375.66;;;9.16;100.00
9521;BME280;4798;41.574;23.734;2023-04-23T01:42:39;95376.84;;;8.83;100.00
9521;BME280;4798;41.574;23.734;2023-04-23T01:45:08;95374.63;;;8.70;100.00
9521;BME280;4798;41.574;23.734;2023-04-23T01:47:37;95367.88;;;8.11;100.00
9521;BME280;4798;41.574;23.734;2023-04-23T01:50:06;95372.66;;;8.14;100.00
9521;BME280;4798;41.574;23.734;2023-04-23T01:52:35;95370.22;;;8.07;100.00
9521;BME280;4798;41.574;23.734;2023-04-23T01:55:04;95375.72;;;8.01;100.00
9521;BME280;4798;41.574;23.734;2023-04-23T01:57:33;95369.50;;;7.85;100.00
9521;BME280;4798;41.574;23.734;2023-04-23T02:00:04;95375.22;;;7.77;100.00
9521;BME280;4798;41.574;23.734;2023-04-23T02:02:34;95369.41;;;8.02;100.00
9521;BME280;4798;41.574;23.734;2023-04-23T02:05:04;95369.94;;;8.36;100.00
9521;BME280;4798;41.574;23.734;2023-04-23T02:07:37;95368.44;;;8.45;100.00
9521;BME280;4798;41.574;23.734;2023-04-23T02:10:06;95367.19;;;8.57;100.00
9521;BME280;4798;41.574;23.734;2023-04-23T02:12:36;95367.78;;;8.69;100.00
9521;BME280;4798;41.574;23.734;2023-04-23T02:15:07;95366.22;;;8.78;100.00
9521;BME280;4798;41.574;23.734;2023-04-23T02:17:36;95303.78;;;8.57;100.00
9521;BME280;4798;41.574;23.734;2023-04-23T02:20:06;95373.75;;;9.02;100.00
9521;BME280;4798;41.574;23.734;2023-04-23T02:22:36;95373.34;;;8.73;100.00
9521;BME280;4798;41.574;23.734;2023-04-23T02:25:05;95372.00;;;8.70;100.00
9521;BME280;4798;41.574;23.734;2023-04-23T02:27:35;95378.91;;;8.76;100.00
9521;BME280;4798;41.574;23.734;2023-04-23T02:30:05;95367.25;;;8.67;100.00
9521;BME280;4798;41.574;23.734;2023-04-23T02:32:35;95373.16;;;8.84;100.00
9521;BME280;4798;41.574;23.734;2023-04-23T02:35:04;95373.09;;;8.38;100.00
9521;BME280;4798;41.574;23.734;2023-04-23T02:37:33;95378.63;;;8.73;100.00
9521;BME280;4798;41.574;23.734;2023-04-23T02:40:03;95378.19;;;8.91;100.00
9521;BME280;4798;41.574;23.734;2023-04-23T02:42:32;95351.97;;;8.79;100.00
9521;BME280;4798;41.574;23.734;2023-04-23T02:45:02;95376.41;;;9.02;100.00
9521;BME280;4798;41.574;23.734;2023-04-23T02:47:31;95376.41;;;9.07;100.00
9521;BME280;4798;41.574;23.734;2023-04-23T02:49:59;95376.91;;;8.99;100.00
9521;BME280;4798;41.574;23.734;2023-04-23T02:52:31;95377.69;;;8.94;100.00
9521;BME280;4798;41.574;23.734;2023-04-23T02:55:00;95374.25;;;8.99;100.00
9521;BME280;4798;41.574;23.734;2023-04-23T02:57:29;95327.13;;;8.80;100.00
9521;BME280;4798;41.574;23.734;2023-04-23T02:59:57;95374.25;;;8.99;100.00
9521;BME280;4798;41.574;23.734;2023-04-23T03:02:27;95373.50;;;9.03;100.00
9521;BME280;4798;41.574;23.734;2023-04-23T03:04:56;95373.00;;;9.11;100.00
9521;BME280;4798;41.574;23.734;2023-04-23T03:07:24;95376.19;;;9.08;100.00
9521;BME280;4798;41.574;23.734;2023-04-23T03:09:52;95375.91;;;9.10;100.00
9521;BME280;4798;41.574;23.734;2023-04-23T03:12:21;95387.00;;;9.07;100.00
9521;BME280;4798;41.574;23.734;2023-04-23T03:14:49;95381.00;;;8.32;100.00
9521;BME280;4798;41.574;23.734;2023-04-23T03:17:17;95385.38;;;7.90;100.00
9521;BME280;4798;41.574;23.734;2023-04-23T03:19:47;95385.94;;;7.65;100.00
9521;BME280;4798;41.574;23.734;2023-04-23T03:22:15;95353.66;;;7.05;100.00
9521;BME280;4798;41.574;23.734;2023-04-23T03:24:44;95381.44;;;7.39;100.00
9521;BME280;4798;41.574;23.734;2023-04-23T03:27:12;95379.72;;;7.50;100.00
9521;BME280;4798;41.574;23.734;2023-04-23T03:29:40;95388.22;;;7.57;100.00
9521;BME280;4798;41.574;23.734;2023-04-23T03:32:08;95385.00;;;7.77;100.00
9521;BME280;4798;41.574;23.734;2023-04-23T03:34:37;95384.22;;;8.08;100.00
9521;BME280;4798;41.574;23.734;2023-04-23T03:37:07;95381.41;;;8.19;100.00
9521;BME280;4798;41.574;23.734;2023-04-23T03:39:35;95378.81;;;7.93;100.00
9521;BME280;4798;41.574;23.734;2023-04-23T03:42:04;95316.63;;;7.43;100.00
9521;BME280;4798;41.574;23.734;2023-04-23T03:44:32;95384.44;;;8.01;100.00
9521;BME280;4798;41.574;23.734;2023-04-23T03:47:01;95383.66;;;8.06;100.00
9521;BME280;4798;41.574;23.734;2023-04-23T03:49:29;95392.56;;;7.68;100.00
9521;BME280;4798;41.574;23.734;2023-04-23T03:51:57;95390.75;;;8.00;100.00
9521;BME280;4798;41.574;23.734;2023-04-23T03:54:27;95356.03;;;7.55;100.00
9521;BME280;4798;41.574;23.734;2023-04-23T03:56:56;95390.38;;;7.87;100.00
9521;BME280;4798;41.574;23.734;2023-04-23T03:59:25;95402.69;;;8.08;100.00
9521;BME280;4798;41.574;23.734;2023-04-23T04:01:53;95398.66;;;8.00;100.00
9521;BME280;4798;41.574;23.734;2023-04-23T04:04:21;95397.22;;;8.14;100.00
9521;BME280;4798;41.574;23.734;2023-04-23T04:06:50;95402.34;;;7.73;100.00
9521;BME280;4798;41.574;23.734;2023-04-23T04:09:18;95406.97;;;7.87;100.00
9521;BME280;4798;41.574;23.734;2023-04-23T04:11:49;95432.22;;;8.05;100.00
9521;BME280;4798;41.574;23.734;2023-04-23T04:14:19;95413.50;;;8.33;100.00
9521;BME280;4798;41.574;23.734;2023-04-23T04:16:47;95403.72;;;8.70;100.00
9521;BME280;4798;41.574;23.734;2023-04-23T04:19:16;95409.66;;;8.92;100.00
9521;BME280;4798;41.574;23.734;2023-04-23T04:21:44;95417.28;;;8.84;100.00
9521;BME280;4798;41.574;23.734;2023-04-23T04:24:13;95408.91;;;8.97;100.00
9521;BME280;4798;41.574;23.734;2023-04-23T04:26:41;95431.06;;;8.91;100.00
9521;BME280;4798;41.574;23.734;2023-04-23T04:29:11;95424.50;;;9.04;100.00
9521;BME280;4798;41.574;23.734;2023-04-23T04:31:40;95417.47;;;9.24;100.00
9521;BME280;4798;41.574;23.734;2023-04-23T04:34:08;95425.63;;;9.08;100.00
9521;BME280;4798;41.574;23.734;2023-04-23T04:36:36;95421.91;;;9.09;100.00
9521;BME280;4798;41.574;23.734;2023-04-23T04:39:05;95428.78;;;9.10;100.00
9521;BME280;4798;41.574;23.734;2023-04-23T04:41:35;95378.63;;;8.73;100.00
9521;BME280;4798;41.574;23.734;2023-04-23T04:44:04;95428.00;;;8.67;100.00
9521;BME280;4798;41.574;23.734;2023-04-23T04:46:34;95322.00;;;7.53;100.00
9521;BME280;4798;41.574;23.734;2023-04-23T04:49:06;95431.19;;;7.79;100.00
9521;BME280;4798;41.574;23.734;2023-04-23T04:51:36;95438.22;;;7.68;100.00
9521;BME280;4798;41.574;23.734;2023-04-23T04:54:05;95438.06;;;8.07;100.00
9521;BME280;4798;41.574;23.734;2023-04-23T04:56:34;95370.22;;;8.07;100.00
9521;BME280;4798;41.574;23.734;2023-04-23T04:59:02;95439.50;;;8.19;100.00
9521;BME280;4798;41.574;23.734;2023-04-23T05:01:31;95436.94;;;8.61;100.00
9521;BME280;4798;41.574;23.734;2023-04-23T05:04:01;95437.16;;;8.91;100.00
9521;BME280;4798;41.574;23.734;2023-04-23T05:06:30;95392.31;;;8.60;100.00
9521;BME280;4798;41.574;23.734;2023-04-23T05:08:59;95392.84;;;9.14;100.00
9521;BME280;4798;41.574;23.734;2023-04-23T05:11:27;95437.56;;;9.92;100.00
9521;BME280;4798;41.574;23.734;2023-04-23T05:13:55;95416.00;;;9.43;100.00
9521;BME280;4798;41.574;23.734;2023-04-23T05:16:24;95432.34;;;9.30;100.00
9521;BME280;4798;41.574;23.734;2023-04-23T05:18:52;95438.19;;;9.37;100.00
9521;BME280;4798;41.574;23.734;2023-04-23T05:21:22;95429.34;;;9.17;100.00
9521;BME280;4798;41.574;23.734;2023-04-23T05:23:50;95434.84;;;9.05;100.00
9521;BME280;4798;41.574;23.734;2023-04-23T05:26:19;95439.03;;;9.48;100.00
9521;BME280;4798;41.574;23.734;2023-04-23T05:28:47;95439.84;;;9.58;100.00
9521;BME280;4798;41.574;23.734;2023-04-23T05:31:15;95445.31;;;10.24;100.00
9521;BME280;4798;41.574;23.734;2023-04-23T05:33:44;95445.84;;;10.36;100.00
9521;BME280;4798;41.574;23.734;2023-04-23T05:36:16;95447.13;;;10.08;100.00
9521;BME280;4798;41.574;23.734;2023-04-23T05:38:46;95387.91;;;9.37;100.00
9521;BME280;4798;41.574;23.734;2023-04-23T05:41:15;95443.56;;;9.63;100.00
9521;BME280;4798;41.574;23.734;2023-04-23T05:43:43;95445.03;;;10.20;100.00
9521;BME280;4798;41.574;23.734;2023-04-23T05:46:12;95441.34;;;10.82;100.00
9521;BME280;4798;41.574;23.734;2023-04-23T05:48:40;95445.28;;;11.05;100.00
9521;BME280;4798;41.574;23.734;2023-04-23T05:51:08;95455.38;;;10.22;100.00
9521;BME280;4798;41.574;23.734;2023-04-23T05:53:37;95424.84;;;10.04;100.00
9521;BME280;4798;41.574;23.734;2023-04-23T05:56:06;95448.66;;;9.94;100.00
9521;BME280;4798;41.574;23.734;2023-04-23T05:58:35;95448.50;;;10.61;100.00
9521;BME280;4798;41.574;23.734;2023-04-23T06:01:04;95451.09;;;10.11;100.00
9521;BME280;4798;41.574;23.734;2023-04-23T06:03:33;95445.50;;;10.02;100.00
9521;BME280;4798;41.574;23.734;2023-04-23T06:06:03;95413.22;;;10.10;100.00
9521;BME280;4798;41.574;23.734;2023-04-23T06:08:31;95460.34;;;10.03;100.00
9521;BME280;4798;41.574;23.734;2023-04-23T06:10:59;95456.44;;;10.81;100.00
9521;BME280;4798;41.574;23.734;2023-04-23T06:13:29;95449.56;;;10.70;100.00
9521;BME280;4798;41.574;23.734;2023-04-23T06:15:57;95444.00;;;10.77;100.00
9521;BME280;4798;41.574;23.734;2023-04-23T06:18:26;95457.25;;;10.72;100.00
9521;BME280;4798;41.574;23.734;2023-04-23T06:20:54;95448.13;;;11.23;100.00
9521;BME280;4798;41.574;23.734;2023-04-23T06:23:23;95441.56;;;10.91;100.00
9521;BME280;4798;41.574;23.734;2023-04-23T06:25:51;95459.91;;;10.67;100.00
9521;BME280;4798;41.574;23.734;2023-04-23T06:28:19;95455.13;;;10.84;100.00
9521;BME280;4798;41.574;23.734;2023-04-23T06:30:49;95456.88;;;11.29;100.00
9521;BME280;4798;41.574;23.734;2023-04-23T06:33:17;95447.16;;;10.94;100.00
9521;BME280;4798;41.574;23.734;2023-04-23T06:35:46;95442.34;;;11.11;100.00
9521;BME280;4798;41.574;23.734;2023-04-23T06:38:14;95457.44;;;11.16;100.00
9521;BME280;4798;41.574;23.734;2023-04-23T06:40:44;95447.88;;;11.99;97.45
9521;BME280;4798;41.574;23.734;2023-04-23T06:43:13;95434.47;;;12.53;93.76
9521;BME280;4798;41.574;23.734;2023-04-23T06:45:41;95444.94;;;13.07;93.76
9521;BME280;4798;41.574;23.734;2023-04-23T06:48:11;95437.19;;;13.58;88.85
9521;BME280;4798;41.574;23.734;2023-04-23T06:50:43;95437.63;;;12.89;86.58
9521;BME280;4798;41.574;23.734;2023-04-23T06:53:11;95447.16;;;12.95;87.08
9521;BME280;4798;41.574;23.734;2023-04-23T06:55:39;95448.34;;;13.36;86.15
9521;BME280;4798;41.574;23.734;2023-04-23T06:58:07;95439.91;;;13.95;82.41
9521;BME280;4798;41.574;23.734;2023-04-23T07:00:40;95442.34;;;14.34;83.56
9521;BME280;4798;41.574;23.734;2023-04-23T07:03:08;95435.41;;;15.30;76.21
9521;BME280;4798;41.574;23.734;2023-04-23T07:05:38;95420.72;;;16.09;73.50
9521;BME280;4798;41.574;23.734;2023-04-23T07:08:07;95439.56;;;15.90;71.62
9521;BME280;4798;41.574;23.734;2023-04-23T07:10:35;95435.50;;;16.06;71.33
9521;BME280;4798;41.574;23.734;2023-04-23T07:13:03;95438.28;;;15.87;73.67
9521;BME280;4798;41.574;23.734;2023-04-23T07:15:32;95429.97;;;16.83;72.38
9521;BME280;4798;41.574;23.734;2023-04-23T07:18:00;95420.78;;;17.28;69.34
9521;BME280;4798;41.574;23.734;2023-04-23T07:20:29;95433.31;;;16.88;70.24
9521;BME280;4798;41.574;23.734;2023-04-23T07:22:59;95421.59;;;16.76;70.09
9521;BME280;4798;41.574;23.734;2023-04-23T07:25:30;95441.25;;;17.24;67.95
9521;BME280;4798;41.574;23.734;2023-04-23T07:27:58;95369.38;;;17.18;65.35
9521;BME280;4798;41.574;23.734;2023-04-23T07:30:26;95402.38;;;16.74;65.05
9521;BME280;4798;41.574;23.734;2023-04-23T07:32:55;95422.13;;;17.87;63.92
9521;BME280;4798;41.574;23.734;2023-04-23T07:35:23;95423.63;;;17.62;62.88
9521;BME280;4798;41.574;23.734;2023-04-23T07:37:52;95417.66;;;16.37;65.77
9521;BME280;4798;41.574;23.734;2023-04-23T07:40:25;95421.75;;;15.85;70.11
9521;BME280;4798;41.574;23.734;2023-04-23T07:42:53;95422.53;;;16.35;66.61
9521;BME280;4798;41.574;23.734;2023-04-23T07:45:22;95410.53;;;17.52;65.98
9521;BME280;4798;41.574;23.734;2023-04-23T07:47:50;95410.03;;;18.24;62.46
9521;BME280;4798;41.574;23.734;2023-04-23T07:50:19;95417.97;;;19.35;58.49
9521;BME280;4798;41.574;23.734;2023-04-23T07:52:47;95405.63;;;19.81;60.47
9521;BME280;4798;41.574;23.734;2023-04-23T07:55:15;95410.56;;;19.32;58.10
9521;BME280;4798;41.574;23.734;2023-04-23T07:57:47;95405.00;;;18.65;57.50
9521;BME280;4798;41.574;23.734;2023-04-23T08:00:16;95391.66;;;19.58;54.89
9521;BME280;4798;41.574;23.734;2023-04-23T08:02:44;95399.94;;;19.74;53.70
9521;BME280;4798;41.574;23.734;2023-04-23T08:05:13;95392.78;;;20.07;55.09
9521;BME280;4798;41.574;23.734;2023-04-23T08:07:41;95389.69;;;20.25;55.15
9521;BME280;4798;41.574;23.734;2023-04-23T08:10:09;95392.31;;;20.05;55.29
9521;BME280;4798;41.574;23.734;2023-04-23T08:12:38;95380.00;;;20.66;53.82
9521;BME280;4798;41.574;23.734;2023-04-23T08:15:09;95376.34;;;20.29;52.13
9521;BME280;4798;41.574;23.734;2023-04-23T08:17:37;95383.81;;;20.03;53.16
9521;BME280;4798;41.574;23.734;2023-04-23T08:20:07;95379.78;;;20.71;52.70
9521;BME280;4798;41.574;23.734;2023-04-23T08:22:35;95368.72;;;22.26;49.70
9521;BME280;4798;41.574;23.734;2023-04-23T08:25:04;95362.69;;;22.05;50.72
9521;BME280;4798;41.574;23.734;2023-04-23T08:27:33;95351.13;;;22.32;49.78
9521;BME280;4798;41.574;23.734;2023-04-23T08:30:01;95302.53;;;22.32;49.85
9521;BME280;4798;41.574;23.734;2023-04-23T08:32:31;95317.38;;;21.86;47.51
9521;BME280;4798;41.574;23.734;2023-04-23T08:34:59;95352.28;;;22.19;50.26
9521;BME280;4798;41.574;23.734;2023-04-23T08:37:28;95353.16;;;22.91;49.88
9521;BME280;4798;41.574;23.734;2023-04-23T08:39:57;95348.75;;;23.76;47.47
9521;BME280;4798;41.574;23.734;2023-04-23T08:42:32;95345.56;;;23.40;47.13
9521;BME280;4798;41.574;23.734;2023-04-23T08:45:05;95342.31;;;22.75;48.15
9521;BME280;4798;41.574;23.734;2023-04-23T08:47:37;95337.81;;;21.99;49.23
9521;BME280;4798;41.574;23.734;2023-04-23T08:50:09;95339.75;;;21.75;46.04
9521;BME280;4798;41.574;23.734;2023-04-23T08:52:40;95327.44;;;22.53;45.53
9521;BME280;4798;41.574;23.734;2023-04-23T08:55:09;95326.34;;;23.29;45.51
9521;BME280;4798;41.574;23.734;2023-04-23T08:57:38;95301.03;;;22.07;44.70
9521;BME280;4798;41.574;23.734;2023-04-23T09:00:08;95319.41;;;23.78;42.59
9521;BME280;4798;41.574;23.734;2023-04-23T09:02:39;95305.84;;;23.59;41.41
9521;BME280;4798;41.574;23.734;2023-04-23T09:05:09;95301.56;;;23.27;41.18
9521;BME280;4798;41.574;23.734;2023-04-23T09:07:37;95309.03;;;24.34;39.18
9521;BME280;4798;41.574;23.734;2023-04-23T09:10:07;95315.22;;;23.81;40.81
9521;BME280;4798;41.574;23.734;2023-04-23T09:12:41;95308.09;;;23.26;40.97
9521;BME280;4798;41.574;23.734;2023-04-23T09:15:11;95318.09;;;23.38;42.03
9521;BME280;4798;41.574;23.734;2023-04-23T09:17:42;95305.22;;;25.42;40.11
9521;BME280;4798;41.574;23.734;2023-04-23T09:20:12;95246.78;;;24.57;41.13
9521;BME280;4798;41.574;23.734;2023-04-23T09:22:42;95286.44;;;24.84;42.25
9521;BME280;4798;41.574;23.734;2023-04-23T09:25:14;95252.53;;;22.97;41.77
9521;BME280;4798;41.574;23.734;2023-04-23T09:27:44;95259.78;;;23.24;43.64
9521;BME280;4798;41.574;23.734;2023-04-23T09:30:13;95203.38;;;23.77;42.31
9521;BME280;4798;41.574;23.734;2023-04-23T09:32:44;95287.34;;;25.14;42.06
9521;BME280;4798;41.574;23.734;2023-04-23T09:35:14;95251.28;;;25.63;42.51
9521;BME280;4798;41.574;23.734;2023-04-23T09:37:44;95290.94;;;23.84;41.05
9521;BME280;4798;41.574;23.734;2023-04-23T09:40:16;95277.31;;;24.35;42.62
9521;BME280;4798;41.574;23.734;2023-04-23T09:42:48;95278.16;;;25.45;42.65
9521;BME280;4798;41.574;23.734;2023-04-23T09:45:17;95260.31;;;26.96;39.73
9521;BME280;4798;41.574;23.734;2023-04-23T09:47:50;95265.31;;;25.68;37.19
9521;BME280;4798;41.574;23.734;2023-04-23T09:50:31;95277.41;;;24.99;38.14
9521;BME280;4798;41.574;23.734;2023-04-23T09:52:59;95262.06;;;26.45;37.72
9521;BME280;4798;41.574;23.734;2023-04-23T09:55:29;95264.00;;;27.18;39.68
9521;BME280;4798;41.574;23.734;2023-04-23T09:58:04;95223.75;;;26.20;35.68
9521;BME280;4798;41.574;23.734;2023-04-23T10:00:34;95251.16;;;25.82;36.53
9521;BME280;4798;41.574;23.734;2023-04-23T10:03:05;95248.19;;;26.90;36.60
9521;BME280;4798;41.574;23.734;2023-04-23T10:05:38;95235.59;;;27.16;34.90
9521;BME280;4798;41.574;23.734;2023-04-23T10:08:11;95228.03;;;26.58;34.28
9521;BME280;4798;41.574;23.734;2023-04-23T10:10:40;95227.66;;;28.05;33.51
9521;BME280;4798;41.574;23.734;2023-04-23T10:13:28;95233.09;;;25.41;35.55
9521;BME280;4798;41.574;23.734;2023-04-23T10:15:58;95220.84;;;25.76;35.02
9521;BME280;4798;41.574;23.734;2023-04-23T10:18:50;95217.94;;;25.13;35.57
9521;BME280;4798;41.574;23.734;2023-04-23T10:21:24;95215.59;;;25.38;34.65
9521;BME280;4798;41.574;23.734;2023-04-23T10:24:05;95201.84;;;25.50;35.03
9521;BME280;4798;41.574;23.734;2023-04-23T10:26:37;95173.47;;;24.92;37.35
9521;BME280;4798;41.574;23.734;2023-04-23T10:29:08;95197.41;;;25.39;36.21
9521;BME280;4798;41.574;23.734;2023-04-23T10:31:39;95201.44;;;25.78;35.83
9521;BME280;4798;41.574;23.734;2023-04-23T10:34:10;95196.56;;;25.61;35.29
9521;BME280;4798;41.574;23.734;2023-04-23T10:36:38;95208.03;;;23.26;37.04
9521;BME280;4798;41.574;23.734;2023-04-23T10:39:07;95201.16;;;22.50;37.78
9521;BME280;4798;41.574;23.734;2023-04-23T10:41:37;95195.94;;;22.57;38.64
9521;BME280;4798;41.574;23.734;2023-04-23T10:44:10;95199.41;;;23.36;37.78
9521;BME280;4798;41.574;23.734;2023-04-23T10:46:50;95159.56;;;22.08;39.07
9521;BME280;4798;41.574;23.734;2023-04-23T10:49:21;95132.97;;;21.27;40.52
9521;BME280;4798;41.574;23.734;2023-04-23T10:51:57;95178.22;;;21.33;40.63
9521;BME280;4798;41.574;23.734;2023-04-23T10:54:30;95178.56;;;22.27;40.51
9521;BME280;4798;41.574;23.734;2023-04-23T10:57:00;95171.16;;;24.29;37.70
9521;BME280;4798;41.574;23.734;2023-04-23T10:59:30;95167.59;;;26.02;36.75
9521;BME280;4798;41.574;23.734;2023-04-23T11:02:05;95159.34;;;26.21;33.98
9521;BME280;4798;41.574;23.734;2023-04-23T11:04:40;95160.06;;;26.18;34.68
9521;BME280;4798;41.574;23.734;2023-04-23T11:07:10;95158.28;;;25.99;35.42
9521;BME280;4798;41.574;23.734;2023-04-23T11:09:41;95160.78;;;25.52;34.04
9521;BME280;4798;41.574;23.734;2023-04-23T11:12:11;95160.19;;;24.64;34.33
9521;BME280;4798;41.574;23.734;2023-04-23T11:14:46;95097.31;;;23.33;35.43
9521;BME280;4798;41.574;23.734;2023-04-23T11:17:17;95154.88;;;23.49;35.99
9521;BME280;4798;41.574;23.734;2023-04-23T11:20:06;95171.75;;;22.77;36.26
9521;BME280;4798;41.574;23.734;2023-04-23T11:22:37;95166.81;;;23.13;37.13
9521;BME280;4798;41.574;23.734;2023-04-23T11:25:08;95118.56;;;22.81;36.22
9521;BME280;4798;41.574;23.734;2023-04-23T11:27:38;95140.66;;;24.32;35.21
9521;BME280;4798;41.574;23.734;2023-04-23T11:30:11;95144.84;;;24.72;34.46
9521;BME280;4798;41.574;23.734;2023-04-23T11:32:40;95141.22;;;23.61;37.33
9521;BME280;4798;41.574;23.734;2023-04-23T11:35:12;95157.53;;;24.45;33.57
9521;BME280;4798;41.574;23.734;2023-04-23T11:37:42;95142.69;;;25.63;32.82
9521;BME280;4798;41.574;23.734;2023-04-23T11:40:12;95154.94;;;25.50;33.42
9521;BME280;4798;41.574;23.734;2023-04-23T11:45:35;95150.63;;;22.98;36.21
9521;BME280;4798;41.574;23.734;2023-04-23T11:48:03;95166.34;;;23.81;35.29
9521;BME280;4798;41.574;23.734;2023-04-23T11:50:33;95146.09;;;23.02;35.47
9521;BME280;4798;41.574;23.734;2023-04-23T11:53:04;95156.31;;;23.62;36.37
9521;BME280;4798;41.574;23.734;2023-04-23T11:55:33;95158.34;;;24.07;35.57
9521;BME280;4798;41.574;23.734;2023-04-23T11:58:01;95161.06;;;24.07;36.75
9521;BME280;4798;41.574;23.734;2023-04-23T12:00:30;95160.16;;;23.42;35.93
9521;BME280;4798;41.574;23.734;2023-04-23T12:02:59;95156.44;;;22.37;36.73
9521;BME280;4798;41.574;23.734;2023-04-23T12:05:29;95095.03;;;22.19;36.31
9521;BME280;4798;41.574;23.734;2023-04-23T12:08:10;95149.91;;;21.39;36.39
9521;BME280;4798;41.574;23.734;2023-04-23T12:10:43;95144.69;;;22.45;36.68
9521;BME280;4798;41.574;23.734;2023-04-23T12:13:15;95158.72;;;22.51;37.33
9521;BME280;4798;41.574;23.734;2023-04-23T12:15:45;95148.72;;;22.51;36.84
9521;BME280;4798;41.574;23.734;2023-04-23T12:18:14;95085.00;;;22.19;36.92
9521;BME280;4798;41.574;23.734;2023-04-23T12:20:43;95131.19;;;22.61;36.43
9521;BME280;4798;41.574;23.734;2023-04-23T12:23:13;95128.78;;;23.22;36.73
9521;BME280;4798;41.574;23.734;2023-04-23T12:25:41;95113.13;;;21.75;36.76
9521;BME280;4798;41.574;23.734;2023-04-23T12:28:10;95126.03;;;21.53;37.83
9521;BME280;4798;41.574;23.734;2023-04-23T12:30:42;95125.44;;;21.20;38.39
9521;BME280;4798;41.574;23.734;2023-04-23T12:33:11;95099.53;;;21.43;39.40
9521;BME280;4798;41.574;23.734;2023-04-23T12:35:40;95114.69;;;21.88;38.70
9521;BME280;4798;41.574;23.734;2023-04-23T12:38:21;95105.00;;;23.31;37.61
9521;BME280;4798;41.574;23.734;2023-04-23T12:40:50;95100.06;;;23.17;36.60
9521;BME280;4798;41.574;23.734;2023-04-23T12:43:19;95099.38;;;23.55;36.17
9521;BME280;4798;41.574;23.734;2023-04-23T12:45:47;95102.34;;;24.11;35.28
9521;BME280;4798;41.574;23.734;2023-04-23T12:48:16;95096.91;;;24.08;34.45
9521;BME280;4798;41.574;23.734;2023-04-23T12:50:45;95089.47;;;21.96;37.19
9521;BME280;4798;41.574;23.734;2023-04-23T12:53:13;95102.53;;;21.26;38.42
9521;BME280;4798;41.574;23.734;2023-04-23T12:55:43;95065.44;;;20.83;37.25
9521;BME280;4798;41.574;23.734;2023-04-23T12:58:12;95088.53;;;21.09;37.24
9521;BME280;4798;41.574;23.734;2023-04-23T13:00:40;95086.63;;;21.09;38.43
9521;BME280;4798;41.574;23.734;2023-04-23T13:03:08;95095.19;;;21.39;38.14
9521;BME280;4798;41.574;23.734;2023-04-23T13:05:39;95095.66;;;20.53;38.46
9521;BME280;4798;41.574;23.734;2023-04-23T13:08:08;95037.19;;;20.29;38.78
9521;BME280;4798;41.574;23.734;2023-04-23T13:10:36;95077.41;;;21.10;38.93
9521;BME280;4798;41.574;23.734;2023-04-23T13:13:06;95051.69;;;20.49;40.02
9521;BME280;4798;41.574;23.734;2023-04-23T13:15:34;95096.75;;;20.76;41.09
9521;BME280;4798;41.574;23.734;2023-04-23T13:18:03;95102.09;;;20.03;41.69
9521;BME280;4798;41.574;23.734;2023-04-23T13:20:31;95100.81;;;19.89;41.97
9521;BME280;4798;41.574;23.734;2023-04-23T13:23:00;95103.59;;;19.80;41.71
9521;BME280;4798;41.574;23.734;2023-04-23T13:25:28;95108.47;;;19.66;42.11